Time;durP1;ratioP1;P1;durP2;ratioP2;P2;SDS_P1;SDS_P2;PMS_P1;PMS_P2;Temp;Humidity;BMP_temperature;BMP_pressure;BME280_temperature;BME280_humidity;BME280_pressure;Samples;Min_cycle;Max_cycle;Signal;HPM_P1;HPM_P2
2022/03/20 00:00:56;;;;;;;23.77;17.90;;;7.10;81.30;;;;;;5034711;28;20413;-70
2022/03/20 00:03:23;;;;;;;21.23;17.10;;;7.10;81.50;;;;;;5033995;28;20178;-71
2022/03/20 00:05:50;;;;;;;22.70;17.00;;;7.10;81.60;;;;;;5034595;28;20171;-70
2022/03/20 00:08:16;;;;;;;21.10;18.80;;;7.10;81.70;;;;;;5015658;28;20467;-70
2022/03/20 00:10:47;;;;;;;20.00;17.00;;;7.00;81.80;;;;;;5034031;28;20418;-69
2022/03/20 00:13:18;;;;;;;22.87;17.63;;;6.90;81.80;;;;;;5034065;28;20806;-69
2022/03/20 00:15:46;;;;;;;20.50;16.87;;;6.90;82.20;;;;;;5033830;28;20477;-70
2022/03/20 00:18:14;;;;;;;23.30;19.10;;;6.80;82.40;;;;;;5034245;28;20751;-71
2022/03/20 00:20:42;;;;;;;18.93;16.77;;;6.80;82.70;;;;;;5034427;28;20459;-68
2022/03/20 00:23:10;;;;;;;22.20;18.60;;;6.70;83.10;;;;;;5016234;28;20476;-68
2022/03/20 00:25:38;;;;;;;25.50;18.93;;;6.60;83.40;;;;;;5034194;28;20497;-69
2022/03/20 00:28:05;;;;;;;20.77;17.07;;;6.60;83.80;;;;;;5034511;28;20488;-70
2022/03/20 00:30:31;;;;;;;20.67;17.33;;;6.50;84.20;;;;;;5034501;28;20401;-70
2022/03/20 00:32:57;;;;;;;23.20;18.20;;;6.50;84.50;;;;;;5033789;28;20434;-69
2022/03/20 00:35:22;;;;;;;21.27;17.87;;;6.50;84.80;;;;;;5016757;28;20442;-69
2022/03/20 00:37:48;;;;;;;19.33;17.07;;;6.40;85.20;;;;;;5033845;28;20195;-70
2022/03/20 00:40:13;;;;;;;19.57;17.13;;;6.50;85.50;;;;;;5034095;28;20585;-70
2022/03/20 00:42:39;;;;;;;23.53;17.67;;;6.50;85.60;;;;;;5033947;28;20198;-69
2022/03/20 00:45:05;;;;;;;24.13;18.80;;;6.60;86.10;;;;;;5034084;28;20170;-69
2022/03/20 00:47:31;;;;;;;25.87;18.80;;;6.60;86.40;;;;;;5033465;28;20434;-69
2022/03/20 00:49:56;;;;;;;21.57;18.73;;;6.60;86.60;;;;;;5033758;28;21278;-69
2022/03/20 00:52:22;;;;;;;24.50;18.60;;;6.70;86.90;;;;;;5033910;28;20175;-71
2022/03/20 00:54:48;;;;;;;25.77;20.00;;;6.60;87.20;;;;;;5033246;28;20190;-69
2022/03/20 00:57:13;;;;;;;22.73;19.07;;;6.60;87.40;;;;;;5015315;28;20204;-69
2022/03/20 00:59:41;;;;;;;24.43;19.20;;;6.50;87.90;;;;;;5034506;28;20414;-68
2022/03/20 01:02:08;;;;;;;20.30;17.97;;;6.50;88.40;;;;;;5034818;28;20309;-69
2022/03/20 01:04:34;;;;;;;26.80;20.37;;;6.50;88.80;;;;;;5038206;28;20406;-68
2022/03/20 01:07:01;;;;;;;23.07;18.93;;;6.30;89.10;;;;;;5038349;28;20969;-70
2022/03/20 01:09:28;;;;;;;23.23;18.03;;;6.20;89.50;;;;;;5039119;28;20410;-68
2022/03/20 01:11:54;;;;;;;23.77;18.67;;;6.10;90.00;;;;;;5038214;28;20564;-69
2022/03/20 01:14:20;;;;;;;22.53;18.70;;;6.20;90.20;;;;;;5027322;28;20432;-67
2022/03/20 01:16:46;;;;;;;23.40;19.30;;;6.30;90.20;;;;;;5059276;28;20461;-67
2022/03/20 01:19:11;;;;;;;23.63;19.37;;;6.20;90.40;;;;;;5058509;28;20186;-68
2022/03/20 01:21:37;;;;;;;29.53;21.03;;;6.20;90.20;;;;;;5058513;28;20159;-67
2022/03/20 01:24:03;;;;;;;21.40;17.27;;;6.20;90.30;;;;;;5055240;28;20183;-68
2022/03/20 01:26:29;;;;;;;25.40;19.77;;;6.30;90.40;;;;;;5040055;28;20191;-69
2022/03/20 01:28:55;;;;;;;21.90;18.77;;;6.30;90.30;;;;;;5036511;28;20183;-68
2022/03/20 01:31:20;;;;;;;21.37;18.13;;;6.30;90.30;;;;;;5036620;28;20483;-69
2022/03/20 01:33:46;;;;;;;25.77;19.93;;;6.30;90.20;;;;;;5036508;28;20453;-67
2022/03/20 01:36:11;;;;;;;25.50;19.17;;;6.30;90.30;;;;;;5018802;28;20215;-68
2022/03/20 01:38:37;;;;;;;24.50;20.00;;;6.30;90.30;;;;;;5036595;28;20178;-68
2022/03/20 01:41:02;;;;;;;25.07;19.17;;;6.20;90.50;;;;;;5036399;28;20174;-70
2022/03/20 01:43:28;;;;;;;27.47;19.50;;;6.20;90.70;;;;;;5036611;28;20175;-69
2022/03/20 01:45:53;;;;;;;22.07;18.20;;;6.20;90.60;;;;;;5036724;28;20199;-69
2022/03/20 01:48:19;;;;;;;24.00;17.50;;;6.20;90.70;;;;;;5037092;28;20190;-69
2022/03/20 01:50:45;;;;;;;25.53;19.90;;;6.20;90.60;;;;;;5037381;28;20186;-67
2022/03/20 01:53:10;;;;;;;23.73;18.27;;;6.20;90.70;;;;;;5037403;28;20186;-69
2022/03/20 01:55:36;;;;;;;24.03;19.07;;;6.20;90.70;;;;;;5037002;28;20206;-70
2022/03/20 01:58:02;;;;;;;24.27;19.00;;;6.30;90.80;;;;;;5037003;28;20472;-70
2022/03/20 02:00:29;;;;;;;23.53;18.20;;;6.20;90.70;;;;;;5036656;28;20643;-69
2022/03/20 02:02:55;;;;;;;22.37;18.30;;;6.30;90.70;;;;;;5037161;28;20513;-69
2022/03/20 02:05:21;;;;;;;30.00;19.13;;;6.30;90.70;;;;;;5018976;28;21128;-69
2022/03/20 02:07:47;;;;;;;27.27;19.70;;;6.30;90.70;;;;;;5036526;28;20438;-68
2022/03/20 02:10:14;;;;;;;24.50;19.50;;;6.30;90.70;;;;;;5037222;28;20440;-69
2022/03/20 02:12:41;;;;;;;20.80;18.47;;;6.30;90.60;;;;;;5019963;28;20410;-70
2022/03/20 02:15:10;;;;;;;23.30;18.70;;;6.20;90.70;;;;;;5037447;28;20861;-69
2022/03/20 02:17:37;;;;;;;20.77;18.40;;;6.20;90.70;;;;;;5038854;28;20448;-69
2022/03/20 02:20:05;;;;;;;25.63;19.17;;;6.20;90.70;;;;;;5038131;28;20809;-69
2022/03/20 02:22:32;;;;;;;23.63;18.40;;;6.20;90.80;;;;;;5036028;28;20397;-70
2022/03/20 02:25:04;;;;;;;28.53;18.80;;;6.40;90.70;;;;;;5033706;28;20398;-68
2022/03/20 02:27:32;;;;;;;20.77;18.57;;;6.40;90.30;;;;;;5058153;28;20705;-67
2022/03/20 02:30:00;;;;;;;25.10;18.40;;;6.40;90.20;;;;;;5045786;28;20402;-70
2022/03/20 02:32:28;;;;;;;24.40;18.83;;;6.50;90.20;;;;;;5043825;28;20894;-69
2022/03/20 02:34:55;;;;;;;23.20;20.07;;;6.50;89.80;;;;;;5036158;28;20468;-70
2022/03/20 02:37:24;;;;;;;23.37;18.37;;;6.60;89.60;;;;;;5035603;28;20467;-69
2022/03/20 02:39:53;;;;;;;22.97;19.20;;;6.40;88.70;;;;;;5035462;28;20470;-70
2022/03/20 02:42:19;;;;;;;22.93;19.03;;;6.40;88.90;;;;;;5017533;28;20409;-69
2022/03/20 02:44:50;;;;;;;21.73;17.07;;;6.40;88.90;;;;;;5035460;28;20441;-68
2022/03/20 02:47:20;;;;;;;23.47;19.47;;;6.30;88.90;;;;;;5035299;28;20598;-69
2022/03/20 02:49:48;;;;;;;25.10;18.47;;;6.30;88.70;;;;;;5016998;28;20422;-68
2022/03/20 02:52:14;;;;;;;24.33;18.77;;;6.40;88.80;;;;;;5034572;28;20420;-69
2022/03/20 02:54:39;;;;;;;24.93;19.27;;;6.40;88.60;;;;;;5039703;28;20438;-70
2022/03/20 02:57:08;;;;;;;21.73;17.17;;;6.30;88.70;;;;;;5038338;28;20190;-68
2022/03/20 02:59:34;;;;;;;21.27;17.17;;;6.30;88.60;;;;;;5037860;28;20204;-69
2022/03/20 03:02:01;;;;;;;22.63;17.93;;;6.30;88.40;;;;;;5036830;28;20775;-69
2022/03/20 03:04:26;;;;;;;20.50;17.93;;;6.20;88.70;;;;;;5036083;28;20406;-69
2022/03/20 03:06:52;;;;;;;25.67;18.60;;;6.30;89.00;;;;;;5035032;28;20424;-68
2022/03/20 03:12:04;;;;;;;21.37;18.83;;;6.30;88.00;;;;;;5035110;28;20181;-68
2022/03/20 03:17:27;;;;;;;21.00;18.03;;;6.30;88.70;;;;;;5035342;28;20468;-69
2022/03/20 03:19:54;;;;;;;21.77;18.53;;;6.40;88.40;;;;;;5035182;28;20901;-69
2022/03/20 03:22:19;;;;;;;24.93;18.30;;;6.50;87.60;;;;;;5034605;28;20458;-67
2022/03/20 03:24:45;;;;;;;23.03;19.23;;;6.50;87.00;;;;;;5034429;28;20402;-68
2022/03/20 03:27:10;;;;;;;21.80;17.50;;;6.40;86.60;;;;;;5016196;28;20244;-69
2022/03/20 03:29:36;;;;;;;22.47;18.63;;;6.50;86.80;;;;;;5016433;28;20182;-68
2022/03/20 03:32:02;;;;;;;23.60;18.00;;;6.60;86.40;;;;;;5034655;28;20211;-69
2022/03/20 03:37:11;;;;;;;23.13;17.90;;;6.70;85.60;;;;;;5034672;28;20252;-70
2022/03/20 03:39:36;;;;;;;23.37;18.17;;;6.80;85.10;;;;;;5034610;28;20401;-70
2022/03/20 03:42:03;;;;;;;23.13;18.30;;;6.80;84.00;;;;;;5034148;28;20547;-68
2022/03/20 03:44:28;;;;;;;21.47;18.03;;;6.80;83.80;;;;;;5016303;28;20171;-68
2022/03/20 03:46:57;;;;;;;23.17;18.77;;;6.90;83.60;;;;;;5034147;28;20429;-69
2022/03/20 03:49:23;;;;;;;22.47;18.43;;;6.80;83.00;;;;;;5034367;28;20643;-68
2022/03/20 03:51:48;;;;;;;21.70;17.13;;;6.90;82.80;;;;;;5033769;28;20410;-69
2022/03/20 03:54:14;;;;;;;23.87;19.50;;;6.90;82.10;;;;;;5034471;28;20187;-69
2022/03/20 03:56:40;;;;;;;23.07;18.57;;;6.90;81.80;;;;;;5034482;28;20208;-69
2022/03/20 03:59:05;;;;;;;24.13;18.80;;;6.90;81.80;;;;;;5034834;28;20193;-69
2022/03/20 04:01:31;;;;;;;23.30;18.57;;;7.00;81.90;;;;;;5034905;28;20497;-68
2022/03/20 04:03:56;;;;;;;22.43;17.43;;;7.00;81.60;;;;;;5033742;28;20233;-70
2022/03/20 04:06:22;;;;;;;27.87;18.40;;;7.10;81.10;;;;;;5034101;28;20199;-69
2022/03/20 04:08:47;;;;;;;24.03;18.30;;;7.10;81.00;;;;;;5033522;28;20199;-70
2022/03/20 04:11:13;;;;;;;25.30;19.23;;;7.10;80.60;;;;;;5034244;28;20255;-68
2022/03/20 04:13:41;;;;;;;24.73;19.40;;;7.10;79.50;;;;;;5034232;28;20186;-69
2022/03/20 04:16:06;;;;;;;22.80;18.50;;;7.10;79.60;;;;;;5039471;23;20242;-69
2022/03/20 04:18:32;;;;;;;23.03;19.00;;;7.10;79.80;;;;;;5048817;28;20468;-69
2022/03/20 04:20:58;;;;;;;19.70;17.47;;;7.10;79.60;;;;;;5051380;28;20175;-69
2022/03/20 04:26:07;;;;;;;22.80;18.23;;;6.80;79.40;;;;;;5051649;28;20658;-68
2022/03/20 04:28:33;;;;;;;23.17;19.50;;;6.80;79.90;;;;;;5051175;28;20401;-68
2022/03/20 04:30:58;;;;;;;21.93;18.87;;;6.80;80.80;;;;;;5033296;28;20194;-69
2022/03/20 04:33:25;;;;;;;22.37;17.67;;;6.70;79.50;;;;;;5051022;28;20235;-69
2022/03/20 04:35:51;;;;;;;25.60;19.40;;;6.70;80.00;;;;;;5050976;28;20586;-69
2022/03/20 04:38:20;;;;;;;23.53;18.93;;;6.70;80.50;;;;;;5051433;28;20426;-68
2022/03/20 04:40:47;;;;;;;25.67;18.73;;;6.70;80.40;;;;;;5055005;28;20166;-68
2022/03/20 04:43:13;;;;;;;23.77;18.20;;;6.60;79.90;;;;;;5054613;28;20410;-68
2022/03/20 04:45:38;;;;;;;24.93;18.63;;;6.60;80.40;;;;;;5054895;28;20416;-68
2022/03/20 04:59:00;;;;;;;26.10;18.60;;;6.10;82.60;;;;;;5055032;28;20411;-68
2022/03/20 05:01:25;;;;;;;27.97;17.70;;;5.90;82.80;;;;;;5054796;28;20396;-68
2022/03/20 05:03:51;;;;;;;21.50;18.23;;;5.90;83.30;;;;;;5038212;28;20175;-68
2022/03/20 05:06:16;;;;;;;20.53;18.17;;;5.90;83.60;;;;;;5054709;28;20525;-68
2022/03/20 05:08:42;;;;;;;25.40;17.37;;;5.90;83.80;;;;;;5053882;28;20186;-68
2022/03/20 05:13:52;;;;;;;18.67;16.67;;;6.00;84.20;;;;;;5054417;28;20192;-68
2022/03/20 05:16:18;;;;;;;28.27;19.00;;;5.90;84.10;;;;;;5053957;28;20543;-68
2022/03/20 05:18:44;;;;;;;24.60;18.93;;;5.90;84.30;;;;;;5036444;28;21011;-69
2022/03/20 05:21:10;;;;;;;23.43;19.40;;;5.80;84.40;;;;;;5054471;28;20518;-69
2022/03/20 05:23:37;;;;;;;22.00;18.97;;;5.70;84.70;;;;;;5053924;28;20197;-68
2022/03/20 05:26:02;;;;;;;23.70;17.90;;;5.60;85.10;;;;;;5054121;28;20409;-68
2022/03/20 05:28:28;;;;;;;22.53;19.20;;;5.70;85.40;;;;;;5036546;28;20430;-68
2022/03/20 05:30:54;;;;;;;24.37;18.33;;;5.70;85.70;;;;;;5054106;28;20776;-68
2022/03/20 05:33:20;;;;;;;22.60;18.20;;;5.80;85.60;;;;;;5053823;28;20174;-68
2022/03/20 05:35:45;;;;;;;21.53;17.23;;;5.80;85.30;;;;;;5053917;28;20456;-69
2022/03/20 05:38:12;;;;;;;23.47;18.10;;;5.80;85.40;;;;;;5053796;28;20220;-69
2022/03/20 05:40:39;;;;;;;26.93;19.50;;;5.80;85.50;;;;;;5054011;28;20718;-68
2022/03/20 05:43:08;;;;;;;25.60;18.43;;;5.90;85.40;;;;;;5053444;28;20439;-69
2022/03/20 05:45:34;;;;;;;24.10;18.57;;;5.80;84.90;;;;;;5054099;28;20412;-69
2022/03/20 05:47:59;;;;;;;24.47;18.57;;;5.80;85.20;;;;;;5054000;28;20424;-68
2022/03/20 05:50:25;;;;;;;28.43;18.80;;;5.80;85.40;;;;;;5054619;28;20900;-69
2022/03/20 05:52:52;;;;;;;22.60;18.70;;;5.80;85.20;;;;;;5053302;28;20185;-68
2022/03/20 05:55:18;;;;;;;22.43;18.20;;;5.90;85.40;;;;;;5053609;28;20479;-68
2022/03/20 05:58:02;;;;;;;26.80;18.57;;;5.90;85.40;;;;;;5053416;28;20421;-68
2022/03/20 06:00:29;;;;;;;21.47;18.10;;;5.90;85.10;;;;;;5053582;28;20181;-68
2022/03/20 06:02:54;;;;;;;21.10;18.73;;;5.90;84.70;;;;;;5053125;28;20405;-68
2022/03/20 06:05:21;;;;;;;24.50;17.23;;;5.90;84.90;;;;;;5053294;28;20420;-69
2022/03/20 06:07:49;;;;;;;23.03;18.50;;;5.80;84.50;;;;;;5052957;28;20193;-68
2022/03/20 06:10:16;;;;;;;23.03;18.57;;;5.80;84.60;;;;;;5053467;28;20470;-68
2022/03/20 06:12:42;;;;;;;25.03;18.33;;;5.70;84.50;;;;;;5052963;28;20416;-69
2022/03/20 06:15:08;;;;;;;23.50;18.10;;;5.70;84.50;;;;;;5053238;28;20453;-69
2022/03/20 06:17:39;;;;;;;25.40;19.10;;;5.70;84.60;;;;;;5052981;28;20885;-69
2022/03/20 06:20:07;;;;;;;21.87;18.70;;;5.70;84.60;;;;;;5053244;28;20393;-69
2022/03/20 06:22:33;;;;;;;24.27;17.93;;;5.70;84.90;;;;;;5052990;28;20416;-68
2022/03/20 06:24:59;;;;;;;21.83;18.73;;;5.70;84.80;;;;;;5053202;28;20465;-69
2022/03/20 06:27:24;;;;;;;24.30;18.57;;;5.80;84.90;;;;;;5053100;28;20435;-68
2022/03/20 06:29:50;;;;;;;23.07;18.40;;;5.80;84.70;;;;;;5034850;28;20182;-68
2022/03/20 06:32:15;;;;;;;21.10;17.67;;;5.80;84.70;;;;;;5052713;28;20181;-68
2022/03/20 06:34:42;;;;;;;21.97;18.40;;;5.80;84.40;;;;;;5052847;28;20175;-68
2022/03/20 06:37:08;;;;;;;22.70;17.93;;;5.80;84.20;;;;;;5053120;28;20205;-68
2022/03/20 06:39:33;;;;;;;23.97;18.10;;;5.90;84.40;;;;;;5052907;28;20499;-68
2022/03/20 06:42:00;;;;;;;22.13;18.03;;;5.90;83.80;;;;;;5052319;28;20181;-68
2022/03/20 06:44:25;;;;;;;26.40;18.23;;;5.90;83.90;;;;;;5052760;28;20597;-69
2022/03/20 06:46:51;;;;;;;19.70;17.30;;;5.80;83.50;;;;;;5054749;28;20471;-69
2022/03/20 06:49:17;;;;;;;21.83;17.67;;;5.60;84.00;;;;;;5060176;28;20186;-69
2022/03/20 06:51:42;;;;;;;21.97;18.50;;;5.70;84.20;;;;;;5067154;28;20177;-69
2022/03/20 06:54:08;;;;;;;24.60;18.37;;;5.70;84.10;;;;;;5072546;28;20180;-70
2022/03/20 06:56:33;;;;;;;23.83;18.80;;;5.70;84.20;;;;;;5052657;28;20210;-69
2022/03/20 06:58:59;;;;;;;19.93;17.33;;;5.70;84.30;;;;;;5052498;28;20174;-69
2022/03/20 07:01:25;;;;;;;21.73;18.33;;;5.80;84.30;;;;;;5051941;28;20638;-69
2022/03/20 07:03:51;;;;;;;27.97;19.10;;;5.80;84.20;;;;;;5061522;28;20169;-69
2022/03/20 07:06:16;;;;;;;25.33;17.83;;;5.90;83.80;;;;;;5066432;28;20522;-69
2022/03/20 07:08:43;;;;;;;20.80;17.70;;;5.80;83.60;;;;;;5059596;28;20178;-69
2022/03/20 07:11:08;;;;;;;24.13;17.90;;;5.80;83.70;;;;;;5067732;28;20638;-69
2022/03/20 07:13:49;;;;;;;24.53;19.30;;;5.80;83.90;;;;;;5055371;28;20424;-68
2022/03/20 07:16:15;;;;;;;24.77;18.23;;;5.70;83.20;;;;;;5063420;28;20326;-68
2022/03/20 07:18:43;;;;;;;27.77;18.67;;;5.80;83.20;;;;;;5063899;28;20472;-69
2022/03/20 07:21:08;;;;;;;23.67;18.20;;;5.90;83.20;;;;;;5067654;28;20447;-70
2022/03/20 07:23:36;;;;;;;23.97;19.00;;;6.00;83.00;;;;;;5055070;28;20460;-69
2022/03/20 07:31:38;;;;;;;21.10;17.80;;;6.10;81.60;;;;;;5055153;28;20415;-70
2022/03/20 07:34:03;;;;;;;23.63;18.57;;;6.00;81.50;;;;;;5065349;28;20751;-70
2022/03/20 07:36:28;;;;;;;22.33;18.33;;;5.90;81.80;;;;;;5061796;28;20228;-70
2022/03/20 07:38:54;;;;;;;25.00;19.00;;;6.00;82.20;;;;;;5058435;28;20516;-70
2022/03/20 07:41:21;;;;;;;26.93;19.20;;;6.10;82.30;;;;;;5068474;28;20586;-70
2022/03/20 07:43:48;;;;;;;20.80;18.20;;;6.20;82.00;;;;;;5055688;28;20166;-70
2022/03/20 07:46:14;;;;;;;21.70;18.23;;;6.30;81.70;;;;;;5064975;28;21078;-70
2022/03/20 07:48:40;;;;;;;23.33;18.20;;;6.30;81.40;;;;;;5060460;28;20535;-70
2022/03/20 07:51:06;;;;;;;23.90;18.33;;;6.40;81.80;;;;;;5054359;28;20220;-70
2022/03/20 07:53:32;;;;;;;27.03;19.60;;;6.40;81.20;;;;;;5057257;28;21026;-70
2022/03/20 07:55:57;;;;;;;21.00;17.90;;;6.50;81.10;;;;;;5053740;28;20233;-69
2022/03/20 07:58:23;;;;;;;25.03;17.50;;;6.60;81.20;;;;;;5052006;28;20289;-69
2022/03/20 08:00:48;;;;;;;25.00;18.20;;;6.70;81.30;;;;;;5061539;28;20216;-70
2022/03/20 08:03:15;;;;;;;24.60;20.03;;;6.80;81.00;;;;;;5066078;28;20213;-69
2022/03/20 08:05:40;;;;;;;25.07;20.00;;;6.90;80.80;;;;;;5044205;28;20223;-69
2022/03/20 08:08:07;;;;;;;24.00;19.50;;;6.90;80.10;;;;;;5057375;28;20974;-68
2022/03/20 08:10:32;;;;;;;23.77;18.40;;;7.00;80.50;;;;;;5059633;28;20199;-69
2022/03/20 08:12:58;;;;;;;23.37;20.00;;;7.10;80.50;;;;;;5064308;28;20969;-70
2022/03/20 08:15:24;;;;;;;26.90;19.73;;;7.10;79.80;;;;;;5058019;28;20252;-70
2022/03/20 08:17:50;;;;;;;27.73;20.47;;;7.20;80.20;;;;;;5068890;28;20214;-70
2022/03/20 08:20:17;;;;;;;26.10;21.10;;;7.30;80.10;;;;;;5062259;28;20431;-70
2022/03/20 08:22:42;;;;;;;27.93;21.10;;;7.40;80.00;;;;;;5044225;28;20290;-70
2022/03/20 08:25:10;;;;;;;27.80;21.00;;;7.50;80.30;;;;;;5070542;28;20820;-68
2022/03/20 08:27:53;;;;;;;31.73;22.97;;;7.60;80.90;;;;;;5058525;28;20198;-69
2022/03/20 08:30:20;;;;;;;30.23;22.63;;;7.60;80.70;;;;;;5066549;28;20409;-69
2022/03/20 08:32:47;;;;;;;32.23;23.37;;;7.70;81.00;;;;;;5067542;28;20419;-71
2022/03/20 08:35:14;;;;;;;29.10;23.30;;;7.80;80.80;;;;;;5059208;28;20535;-69
2022/03/20 08:37:44;;;;;;;27.00;21.83;;;7.90;80.80;;;;;;5070773;28;20447;-69
2022/03/20 08:40:17;;;;;;;30.47;23.80;;;7.90;80.70;;;;;;5055547;28;20417;-71
2022/03/20 08:42:54;;;;;;;38.67;22.77;;;7.90;80.70;;;;;;5054805;28;20410;-69
2022/03/20 08:45:21;;;;;;;29.53;23.07;;;8.00;80.50;;;;;;5055330;28;20416;-71
2022/03/20 08:47:47;;;;;;;27.63;22.80;;;8.00;80.40;;;;;;5055228;28;20420;-69
2022/03/20 08:50:14;;;;;;;31.10;23.07;;;8.10;80.70;;;;;;5055151;28;20417;-69
2022/03/20 08:52:43;;;;;;;31.50;23.50;;;8.20;80.60;;;;;;5054749;28;20404;-70
2022/03/20 08:55:11;;;;;;;28.50;22.53;;;8.30;80.10;;;;;;5054342;28;20448;-70
2022/03/20 08:57:42;;;;;;;34.23;24.20;;;8.40;80.20;;;;;;5054010;28;20433;-71
2022/03/20 09:00:14;;;;;;;29.07;23.47;;;8.50;79.80;;;;;;5054354;28;20939;-69
2022/03/20 09:02:41;;;;;;;29.23;22.03;;;8.70;79.70;;;;;;5054689;28;20403;-69
2022/03/20 09:05:11;;;;;;;29.73;23.37;;;8.90;79.60;;;;;;5054242;28;20413;-70
2022/03/20 09:07:37;;;;;;;30.23;23.80;;;9.00;79.10;;;;;;5054032;28;20487;-70
2022/03/20 09:10:03;;;;;;;35.97;25.20;;;9.00;78.80;;;;;;5054438;28;20416;-70
2022/03/20 09:12:29;;;;;;;28.10;23.77;;;9.10;78.50;;;;;;5054756;28;20405;-71
2022/03/20 09:14:54;;;;;;;30.87;25.10;;;9.10;78.20;;;;;;5054685;28;20452;-69
2022/03/20 09:20:04;;;;;;;33.30;25.00;;;9.30;77.90;;;;;;5054748;28;20185;-69
2022/03/20 09:22:30;;;;;;;31.23;23.63;;;9.10;78.20;;;;;;5036568;28;20405;-69
2022/03/20 09:24:55;;;;;;;30.03;24.37;;;9.30;78.60;;;;;;5054179;28;20436;-69
2022/03/20 09:27:22;;;;;;;29.13;24.13;;;9.40;78.20;;;;;;5054536;28;20281;-70
2022/03/20 09:29:49;;;;;;;30.37;24.53;;;9.40;78.00;;;;;;5036480;28;20186;-69
2022/03/20 09:32:15;;;;;;;28.73;23.20;;;9.60;78.10;;;;;;5053929;28;20413;-69
2022/03/20 09:34:40;;;;;;;30.63;24.03;;;9.70;77.70;;;;;;5054407;28;20507;-69
2022/03/20 09:37:06;;;;;;;27.70;22.73;;;9.70;77.20;;;;;;5054486;28;20190;-70
2022/03/20 09:39:32;;;;;;;29.93;24.10;;;9.50;77.30;;;;;;5054304;28;20178;-70
2022/03/20 09:41:58;;;;;;;31.00;24.30;;;9.50;78.20;;;;;;5054449;28;20182;-70
2022/03/20 09:44:24;;;;;;;32.53;25.40;;;9.60;77.70;;;;;;5054370;28;20397;-70
2022/03/20 09:46:50;;;;;;;30.20;24.03;;;9.60;77.60;;;;;;5054454;28;20194;-70
2022/03/20 09:49:18;;;;;;;30.00;23.93;;;9.80;78.00;;;;;;5054565;28;20448;-70
2022/03/20 09:51:44;;;;;;;31.83;24.30;;;9.80;77.30;;;;;;5054161;28;20467;-70
2022/03/20 09:54:13;;;;;;;31.97;24.70;;;10.00;75.60;;;;;;5055225;28;20412;-70
2022/03/20 09:56:40;;;;;;;33.23;23.77;;;10.10;75.70;;;;;;5066270;28;20206;-71
2022/03/20 09:59:06;;;;;;;34.67;25.77;;;10.00;74.90;;;;;;5069158;28;20559;-69
2022/03/20 10:01:33;;;;;;;32.97;23.97;;;10.10;75.30;;;;;;5051802;28;20419;-70
2022/03/20 10:04:10;;;;;;;33.50;26.07;;;10.30;75.10;;;;;;5070808;28;20796;-70
2022/03/20 10:06:37;;;;;;;29.67;24.70;;;10.40;75.00;;;;;;5052629;28;20440;-70
2022/03/20 10:09:05;;;;;;;30.70;24.13;;;10.40;74.80;;;;;;5066590;28;20433;-70
2022/03/20 10:11:32;;;;;;;32.27;25.20;;;10.60;74.60;;;;;;5054185;28;20416;-71
2022/03/20 10:14:08;;;;;;;29.73;24.67;;;10.70;74.40;;;;;;5053624;28;20438;-70
2022/03/20 10:16:34;;;;;;;28.97;23.57;;;10.80;74.20;;;;;;5074440;22;20471;-71
2022/03/20 10:19:00;;;;;;;31.47;25.27;;;10.90;74.10;;;;;;5036828;28;20456;-69
2022/03/20 10:21:45;;;;;;;30.03;24.33;;;11.00;73.70;;;;;;5036295;28;20394;-69
2022/03/20 10:24:19;;;;;;;32.20;25.10;;;11.10;73.90;;;;;;5035932;28;20186;-70
2022/03/20 10:26:51;;;;;;;31.07;24.87;;;11.10;74.00;;;;;;5035903;28;20481;-69
2022/03/20 10:29:18;;;;;;;31.30;25.60;;;11.10;73.90;;;;;;5036666;28;20422;-69
2022/03/20 10:31:50;;;;;;;31.80;25.20;;;11.00;74.00;;;;;;5037536;28;20746;-70
2022/03/20 10:34:17;;;;;;;33.67;26.03;;;10.90;73.60;;;;;;5037704;28;20807;-70
2022/03/20 10:36:43;;;;;;;33.00;25.53;;;10.80;74.20;;;;;;5037197;28;20453;-69
2022/03/20 10:39:11;;;;;;;28.23;23.23;;;10.80;74.30;;;;;;5038077;28;20402;-69
2022/03/20 10:41:38;;;;;;;30.17;24.50;;;11.00;74.30;;;;;;5035612;28;20409;-68
2022/03/20 10:44:21;;;;;;;33.10;24.70;;;11.20;74.20;;;;;;5017324;28;20927;-69
2022/03/20 10:47:14;;;;;;;30.13;24.53;;;11.30;73.90;;;;;;5034460;28;20433;-69
2022/03/20 10:49:43;;;;;;;30.23;24.73;;;11.30;74.00;;;;;;5034523;28;20409;-69
2022/03/20 10:52:11;;;;;;;27.50;24.30;;;11.50;73.70;;;;;;5034782;28;20417;-69
2022/03/20 10:54:43;;;;;;;31.70;25.07;;;11.50;73.30;;;;;;5034839;28;20483;-69
2022/03/20 10:57:11;;;;;;;29.27;25.47;;;11.60;73.20;;;;;;5034846;28;20433;-69
2022/03/20 10:59:38;;;;;;;29.47;24.30;;;11.70;73.00;;;;;;5034265;28;20425;-70
2022/03/20 11:02:08;;;;;;;34.63;26.07;;;11.60;73.00;;;;;;5016277;28;20429;-69
2022/03/20 11:04:34;;;;;;;29.63;25.10;;;11.50;72.80;;;;;;5034131;28;20416;-69
2022/03/20 11:07:03;;;;;;;29.40;24.80;;;11.40;73.50;;;;;;5034490;28;20437;-69
2022/03/20 11:09:28;;;;;;;32.70;26.30;;;11.50;73.70;;;;;;5034315;28;20497;-69
2022/03/20 11:11:59;;;;;;;33.20;26.00;;;11.40;73.30;;;;;;5034760;28;20446;-69
2022/03/20 11:14:27;;;;;;;32.20;26.03;;;11.40;73.70;;;;;;5035070;28;20663;-69
2022/03/20 11:17:04;;;;;;;30.47;25.73;;;11.40;73.70;;;;;;5034341;28;20555;-69
2022/03/20 11:19:31;;;;;;;31.63;25.27;;;11.50;73.90;;;;;;5034501;28;20410;-69
2022/03/20 11:22:04;;;;;;;31.97;25.73;;;11.60;73.40;;;;;;5033774;28;20409;-70
2022/03/20 11:24:30;;;;;;;30.73;26.23;;;11.70;73.10;;;;;;5033994;28;20409;-70
2022/03/20 11:27:00;;;;;;;27.70;23.90;;;11.70;73.00;;;;;;5034309;28;20498;-70
2022/03/20 11:29:39;;;;;;;27.87;24.70;;;11.80;73.30;;;;;;5033820;28;20683;-69
2022/03/20 11:32:08;;;;;;;32.53;26.40;;;11.70;73.70;;;;;;5033869;28;20759;-70
2022/03/20 11:34:34;;;;;;;33.10;25.63;;;11.70;74.30;;;;;;5033580;28;20413;-70
2022/03/20 11:37:08;;;;;;;34.73;24.93;;;11.90;74.40;;;;;;5033154;28;21043;-71
2022/03/20 11:39:36;;;;;;;28.40;23.60;;;12.00;74.30;;;;;;5034642;28;20409;-71
2022/03/20 11:42:25;;;;;;;32.90;26.97;;;12.20;73.80;;;;;;5034772;28;20410;-70
2022/03/20 11:45:08;;;;;;;33.90;25.93;;;12.30;74.00;;;;;;5035412;28;20427;-70
2022/03/20 11:47:41;;;;;;;30.07;24.57;;;12.30;73.60;;;;;;5033905;28;20461;-68
2022/03/20 11:50:22;;;;;;;28.63;24.60;;;12.20;74.50;;;;;;5033468;28;20500;-68
2022/03/20 11:52:55;;;;;;;31.33;26.13;;;12.30;74.70;;;;;;5033328;28;20432;-69
2022/03/20 11:55:24;;;;;;;31.30;25.40;;;12.30;74.20;;;;;;5015944;28;20468;-70
2022/03/20 11:57:50;;;;;;;37.17;26.90;;;12.40;74.20;;;;;;5033869;28;20429;-68
2022/03/20 12:00:19;;;;;;;32.60;26.70;;;12.40;74.70;;;;;;5033072;28;20410;-69
2022/03/20 12:03:11;;;;;;;34.90;27.13;;;12.40;75.10;;;;;;5032550;28;20166;-69
2022/03/20 12:06:01;;;;;;;30.40;25.47;;;12.60;74.90;;;;;;5015387;28;20791;-69
2022/03/20 12:08:34;;;;;;;33.33;26.60;;;12.80;75.10;;;;;;5032968;28;20934;-71
2022/03/20 12:11:18;;;;;;;33.77;25.47;;;12.80;75.20;;;;;;5015179;28;20424;-70
2022/03/20 12:14:17;;;;;;;30.83;25.50;;;12.80;75.60;;;;;;5032263;28;20953;-70
2022/03/20 12:16:48;;;;;;;31.10;25.30;;;12.80;75.90;;;;;;5032362;28;20449;-67
2022/03/20 12:19:24;;;;;;;29.80;24.17;;;12.90;76.00;;;;;;5033295;28;20413;-71
2022/03/20 12:22:07;;;;;;;31.00;25.97;;;13.00;76.50;;;;;;5032773;28;20910;-71
2022/03/20 12:24:35;;;;;;;30.37;24.90;;;13.00;77.30;;;;;;5033545;28;20780;-70
2022/03/20 12:27:20;;;;;;;30.40;26.20;;;13.00;77.60;;;;;;5032840;28;20426;-69
2022/03/20 12:29:49;;;;;;;29.80;23.93;;;13.10;77.90;;;;;;5033240;28;20408;-69
2022/03/20 12:32:15;;;;;;;30.93;26.03;;;13.20;77.80;;;;;;5032384;28;20463;-71
2022/03/20 12:34:56;;;;;;;30.20;25.67;;;13.20;78.00;;;;;;5015274;28;20414;-69
2022/03/20 12:37:32;;;;;;;29.60;23.03;;;13.10;78.80;;;;;;5032402;28;20524;-70
2022/03/20 12:40:14;;;;;;;28.57;23.73;;;13.10;79.30;;;;;;5032021;28;20412;-70
2022/03/20 12:42:43;;;;;;;34.50;25.80;;;13.10;79.60;;;;;;5031988;28;20405;-70
2022/03/20 12:45:16;;;;;;;28.00;24.23;;;13.10;79.90;;;;;;5032397;28;20504;-70
2022/03/20 12:47:54;;;;;;;36.00;24.50;;;13.00;80.10;;;;;;5032882;28;20472;-69
2022/03/20 12:50:29;;;;;;;27.70;23.20;;;12.90;80.40;;;;;;5032460;28;20437;-70
2022/03/20 12:53:04;;;;;;;30.40;25.10;;;12.80;80.90;;;;;;5032126;28;20432;-70
2022/03/20 12:55:30;;;;;;;30.30;24.20;;;12.80;81.40;;;;;;5032097;28;20812;-70
2022/03/20 12:57:55;;;;;;;31.77;23.57;;;12.80;81.80;;;;;;5032250;28;20429;-70
2022/03/20 13:00:27;;;;;;;31.73;24.90;;;12.80;82.30;;;;;;5034556;28;20402;-71
2022/03/20 13:03:07;;;;;;;32.73;24.37;;;12.60;83.10;;;;;;5035643;28;20254;-71
2022/03/20 13:05:52;;;;;;;29.00;25.10;;;12.70;84.00;;;;;;5036019;28;20440;-70
2022/03/20 13:08:21;;;;;;;32.30;23.53;;;12.80;83.80;;;;;;5035776;28;20424;-69
2022/03/20 13:10:47;;;;;;;28.30;23.43;;;12.90;83.90;;;;;;5036304;28;20926;-69